Skip Navigation Links
NOAA logo - Click to go to the NOAA homepage
NOAA's National Weather Service
Alaska Aviation Weather Unit
  NWS logo - Click to go to the NWS homepage
Left Navbar Graphic     12 AKDT = 20 GMT

   
NOAA is celebrating 200 years of science, service, and stewardship. Visit the NOAA 200th celebration Web site to learn more.
USA.gov is the U.S. Government's official Web portal to all Federal, state and local government Web resources and services.
Facebook
NWS on Facebook

Important Change Regarding the AAWU Web Presence

 

Over the last several months, the AAWU has been working to navigate its webpages to a nationally supported server. Security, as well as other needs, have necessitated the change.  We have been given an extension for the site changeover while we diligently work at addressing feedback received. As of July 14, 2017, aawu.arh.noaa.gov will be discontinued. The new AAWU web address is weather.gov/aawu. It is now live and will run in-parallel with the old site until it is discontinued on July 14, 2017. Please continue to send any feedback or questions regarding the new webpages to nws.ar.aawu.webauthors@noaa.gov.  Thank you for your patience during this time of transition.
AAWU Home :: Display TAF Add Bookmark
SPECI PPIZ 251424Z AUTO 34005KT 10SM OVC015 08/06 A2994 RMK AO2 TSNO=

METAR PPIZ 251456Z AUTO 34005KT 10SM BKN019 OVC120 08/06 A2994 RMK AO2
     SLP143 T00780056 51003 TSNO=

SPECI PPIZ 251514Z AUTO 34005KT 10SM SCT019 OVC120 08/06 A2994 RMK
      AO2 TSNO=

SPECI PPIZ 251525Z AUTO 34005KT 10SM FEW016 BKN023 OVC120 08/06 A2994
      RMK AO2 TSNO=

METAR PPIZ 251556Z AUTO 01005KT 10SM OVC016 08/06 A2994 RMK AO2 SLP143
     T00830056 TSNO=

METAR PPIZ 251656Z AUTO 35005KT 10SM OVC016 08/06 A2995 RMK AO2 SLP145
     T00830056 TSNO=

METAR PPIZ 251756Z AUTO 34005KT 10SM OVC018 08/05 A2995 RMK AO2 SLP148
     T00830050 10089 20072 53004 TSNO=

METAR PPIZ 251856Z AUTO 02006KT 10SM OVC018 09/06 A2996 RMK AO2 SLP149
      T00890056 TSNO=


NOAA's National Weather Service
Alaska Aviation Weather Unit
6930 Sand Lake Road
Anchorage, AK 99502-1845
Disclaimer
Credits
Glossary
Privacy Policy
About Us
Career Opportunities
Contact AAWU Internet Services Site last modified: April, 17th 2012